Time;durP1;ratioP1;P1;durP2;ratioP2;P2;SDS_P1;SDS_P2;PMS_P1;PMS_P2;Temp;Humidity;BMP_temperature;BMP_pressure;BME280_temperature;BME280_humidity;BME280_pressure;Samples;Min_cycle;Max_cycle;Signal;HPM_P1;HPM_P2
2022/01/02 00:02:15;;;;;;;141.53;35.00;;;;;;;6.19;100.00;100686.94;4931148;28;20234;-58
2022/01/02 00:04:48;;;;;;;126.63;39.27;;;;;;;6.07;100.00;100687.28;4950291;29;20271;-58
2022/01/02 00:07:19;;;;;;;117.70;36.63;;;;;;;6.02;100.00;100694.22;4950281;28;20348;-58
2022/01/02 00:09:47;;;;;;;156.73;36.17;;;;;;;6.26;100.00;100693.56;4950481;28;20240;-58
2022/01/02 00:12:24;;;;;;;158.33;32.00;;;;;;;6.30;100.00;100691.75;4940617;28;20263;-58
2022/01/02 00:14:54;;;;;;;259.13;34.50;;;;;;;6.37;100.00;100689.88;4950117;28;20187;-58
2022/01/02 00:17:23;;;;;;;136.10;27.70;;;;;;;6.58;100.00;100698.66;4940578;28;20231;-58
2022/01/02 00:19:55;;;;;;;209.87;29.40;;;;;;;6.51;100.00;100705.69;4950107;29;20227;-58
2022/01/02 00:22:29;;;;;;;69.53;23.90;;;;;;;6.59;100.00;100696.06;4924664;29;20666;-58
2022/01/02 00:24:56;;;;;;;112.43;24.60;;;;;;;6.60;100.00;100691.78;4949715;29;20226;-58
2022/01/02 00:27:22;;;;;;;74.10;24.03;;;;;;;6.63;100.00;100689.13;4950230;29;20916;-58
2022/01/02 00:29:49;;;;;;;242.10;31.63;;;;;;;6.76;100.00;100679.38;4949944;29;20290;-58
2022/01/02 00:32:16;;;;;;;204.10;28.83;;;;;;;6.55;100.00;100683.41;4920608;28;20227;-58
2022/01/02 00:34:43;;;;;;;90.90;24.07;;;;;;;6.64;100.00;100670.38;4949875;28;20279;-58
2022/01/02 00:37:09;;;;;;;273.67;29.97;;;;;;;6.81;100.00;100671.56;4969544;28;20206;-59
2022/01/02 00:39:34;;;;;;;207.87;27.10;;;;;;;6.85;100.00;100676.56;4971725;28;20212;-59
2022/01/02 00:42:35;;;;;;;103.70;23.20;;;;;;;6.77;100.00;100674.25;4986914;28;20566;-58
2022/01/02 00:45:13;;;;;;;175.60;26.37;;;;;;;6.89;100.00;100680.69;4997430;28;20192;-58
2022/01/02 00:47:44;;;;;;;166.47;22.97;;;;;;;6.99;100.00;100681.25;4997537;28;20181;-58
2022/01/02 00:50:20;;;;;;;272.07;28.47;;;;;;;6.88;100.00;100678.19;4988665;28;20194;-57
2022/01/02 00:52:47;;;;;;;277.37;30.37;;;;;;;6.91;100.00;100676.38;5010352;28;20178;-57
2022/01/02 00:55:18;;;;;;;170.93;24.33;;;;;;;6.93;100.00;100666.09;4997583;28;20183;-58
2022/01/02 00:57:49;;;;;;;290.97;30.67;;;;;;;7.08;100.00;100663.09;4997822;28;20213;-57
2022/01/02 01:00:17;;;;;;;137.13;24.97;;;;;;;6.55;100.00;100645.06;4988899;28;20203;-58
2022/01/02 01:02:48;;;;;;;96.93;23.03;;;;;;;6.34;100.00;100629.47;5010754;28;20179;-58
2022/01/02 01:05:24;;;;;;;94.23;23.40;;;;;;;6.23;100.00;100623.84;4997187;28;20308;-58
2022/01/02 01:07:55;;;;;;;125.37;22.47;;;;;;;6.39;100.00;100631.91;4997482;28;20181;-58
2022/01/02 01:10:22;;;;;;;93.57;22.87;;;;;;;6.66;100.00;100639.63;4989690;28;20174;-58
2022/01/02 01:12:53;;;;;;;150.13;26.40;;;;;;;6.52;100.00;100645.16;5009953;28;20252;-58
2022/01/02 01:15:20;;;;;;;124.20;22.47;;;;;;;6.57;100.00;100654.38;4997143;28;20185;-58
2022/01/02 01:17:46;;;;;;;167.47;25.63;;;;;;;6.64;100.00;100649.91;4997257;28;20551;-58
2022/01/02 01:20:13;;;;;;;145.20;24.33;;;;;;;6.70;100.00;100647.19;4988410;28;20207;-58
2022/01/02 01:22:40;;;;;;;145.30;22.93;;;;;;;6.48;100.00;100631.63;5010956;28;20273;-57
2022/01/02 01:25:11;;;;;;;60.93;18.90;;;;;;;6.55;100.00;100630.56;4996985;28;20179;-58
2022/01/02 01:27:37;;;;;;;200.60;22.87;;;;;;;6.65;100.00;100633.69;4997182;28;20221;-57
2022/01/02 01:30:03;;;;;;;64.50;19.20;;;;;;;6.73;100.00;100641.13;4991485;28;20234;-58
2022/01/02 01:32:28;;;;;;;186.27;25.30;;;;;;;6.44;100.00;100636.00;5012007;28;20281;-57
2022/01/02 01:34:54;;;;;;;93.93;19.73;;;;;;;6.37;100.00;100628.53;4997051;28;20549;-58
2022/01/02 01:37:19;;;;;;;60.50;20.00;;;;;;;6.53;100.00;100634.88;4997261;28;20186;-57
2022/01/02 01:39:44;;;;;;;101.50;20.90;;;;;;;6.73;100.00;100638.56;4996998;28;20694;-57
2022/01/02 01:42:12;;;;;;;95.47;20.90;;;;;;;6.83;100.00;100639.97;4991663;28;20313;-58
2022/01/02 01:45:02;;;;;;;140.60;22.03;;;;;;;6.37;100.00;100629.38;4996809;28;20273;-58
2022/01/02 01:47:25;;;;;;;41.93;17.33;;;;;;;6.04;100.00;100610.72;4988130;28;20254;-58
2022/01/02 01:49:51;;;;;;;113.57;19.73;;;;;;;6.18;100.00;100608.63;4977647;28;20201;-58
2022/01/02 01:52:16;;;;;;;69.07;17.23;;;;;;;6.20;100.00;100606.88;4982496;28;20671;-58
2022/01/02 01:54:41;;;;;;;137.33;18.43;;;;;;;6.22;100.00;100599.97;4974557;28;20174;-58
2022/01/02 01:57:07;;;;;;;119.63;20.83;;;;;;;6.33;100.00;100611.63;4974587;28;20179;-57
2022/01/02 01:59:32;;;;;;;55.37;17.27;;;;;;;6.43;100.00;100620.69;4974311;28;20230;-58
2022/01/02 02:01:57;;;;;;;75.33;16.13;;;;;;;6.54;100.00;100613.56;4978989;28;20234;-58
2022/01/02 02:04:23;;;;;;;140.87;17.20;;;;;;;6.45;100.00;100604.44;4980600;28;20225;-58
2022/01/02 02:06:48;;;;;;;109.30;17.03;;;;;;;6.38;100.00;100605.50;4992227;28;20228;-58
2022/01/02 02:09:14;;;;;;;115.17;17.80;;;;;;;6.36;100.00;100606.44;4993533;28;20206;-57
2022/01/02 02:11:40;;;;;;;147.37;18.80;;;;;;;6.41;100.00;100604.56;4983011;28;20302;-57
2022/01/02 02:14:07;;;;;;;104.07;18.30;;;;;;;6.35;100.00;100590.28;4993190;28;20524;-58
2022/01/02 02:16:36;;;;;;;121.53;17.10;;;;;;;6.19;100.00;100577.09;4993679;28;20187;-58
2022/01/02 02:19:04;;;;;;;88.90;16.63;;;;;;;6.06;100.00;100578.31;4993261;28;20209;-58
2022/01/02 02:21:32;;;;;;;63.93;15.43;;;;;;;6.01;100.00;100586.09;4982807;28;20256;-58
2022/01/02 02:23:57;;;;;;;78.27;15.53;;;;;;;6.19;100.00;100581.34;4992814;28;20658;-58
2022/01/02 02:26:23;;;;;;;65.17;15.73;;;;;;;6.01;100.00;100569.94;4993557;28;20177;-58
2022/01/02 02:28:48;;;;;;;39.23;14.93;;;;;;;6.18;100.00;100574.56;4991897;28;20233;-58
2022/01/02 02:31:13;;;;;;;48.97;15.53;;;;;;;6.17;100.00;100563.53;4983003;28;20335;-58
2022/01/02 02:33:39;;;;;;;45.70;14.60;;;;;;;6.09;100.00;100568.84;4992534;28;20178;-58
2022/01/02 02:36:04;;;;;;;72.47;17.40;;;;;;;6.13;100.00;100552.56;4993272;28;20840;-59
2022/01/02 02:38:29;;;;;;;31.07;13.10;;;;;;;6.02;100.00;100559.69;4992713;28;20225;-58
2022/01/02 02:40:56;;;;;;;29.77;14.87;;;;;;;6.33;100.00;100583.53;4982764;28;20237;-58
2022/01/02 02:43:37;;;;;;;33.63;15.17;;;;;;;6.49;100.00;100594.97;4992594;28;20284;-58
2022/01/02 02:49:00;;;;;;;75.27;16.40;;;;;;;6.24;100.00;100585.47;4992769;28;20232;-59
2022/01/02 02:51:38;;;;;;;64.07;15.53;;;;;;;6.26;100.00;100582.84;4993356;28;20968;-58
2022/01/02 02:54:04;;;;;;;59.20;15.40;;;;;;;6.35;100.00;100580.06;4995625;28;20254;-58
2022/01/02 02:57:11;;;;;;;48.73;14.67;;;;;;;6.38;100.00;100567.16;4992927;28;20263;-58
2022/01/02 02:59:30;;;;;;;46.63;14.63;;;;;;;6.41;100.00;100561.13;4990525;28;20228;-58
2022/01/02 03:01:57;;;;;;;114.03;15.80;;;;;;;6.42;100.00;100561.06;4996788;28;20233;-58
2022/01/02 03:04:24;;;;;;;48.73;13.93;;;;;;;6.42;100.00;100568.75;4993014;28;20178;-59
2022/01/02 03:06:49;;;;;;;73.03;14.53;;;;;;;6.60;100.00;100546.91;4992509;28;20186;-58
2022/01/02 03:09:17;;;;;;;61.10;13.57;;;;;;;6.48;100.00;100547.28;4992533;28;20198;-59
2022/01/02 03:11:43;;;;;;;125.87;16.03;;;;;;;6.61;100.00;100535.81;4984077;28;20230;-58
2022/01/02 03:14:11;;;;;;;79.13;14.23;;;;;;;6.55;100.00;100536.00;4994779;28;20185;-58
2022/01/02 03:16:37;;;;;;;84.27;15.70;;;;;;;6.60;100.00;100551.19;4992602;28;20300;-58
2022/01/02 03:19:03;;;;;;;118.13;16.43;;;;;;;6.71;100.00;100532.94;4992319;28;20201;-58
2022/01/02 03:21:29;;;;;;;59.90;13.63;;;;;;;6.60;100.00;100523.09;4993240;28;20352;-58
2022/01/02 03:23:54;;;;;;;62.00;13.57;;;;;;;6.52;100.00;100509.69;4996270;28;20659;-58
2022/01/02 03:26:20;;;;;;;58.17;13.27;;;;;;;6.54;100.00;100498.53;4992108;28;20221;-58
2022/01/02 03:28:46;;;;;;;135.97;17.77;;;;;;;6.60;100.00;100510.31;4992171;28;20508;-58
2022/01/02 03:31:12;;;;;;;87.20;13.53;;;;;;;6.73;100.00;100518.41;4990717;28;20240;-59
2022/01/02 03:33:37;;;;;;;126.87;17.03;;;;;;;6.68;100.00;100517.72;4998310;28;20179;-58
2022/01/02 03:36:04;;;;;;;139.27;15.73;;;;;;;6.50;100.00;100511.44;4992100;28;20722;-58
2022/01/02 03:38:29;;;;;;;106.27;13.97;;;;;;;6.60;100.00;100512.84;4991756;28;20309;-58
2022/01/02 03:40:55;;;;;;;115.73;15.73;;;;;;;6.48;100.00;100508.13;4988363;28;20402;-58
2022/01/02 03:43:20;;;;;;;93.23;14.47;;;;;;;6.60;100.00;100507.75;4990051;28;20180;-58
2022/01/02 03:45:46;;;;;;;93.13;13.93;;;;;;;6.74;100.00;100505.56;4972457;28;20182;-59
2022/01/02 03:48:12;;;;;;;66.10;12.90;;;;;;;6.56;100.00;100499.34;4972257;28;20189;-59
2022/01/02 03:50:37;;;;;;;128.87;15.20;;;;;;;6.45;100.00;100484.31;4964118;28;20231;-59
2022/01/02 03:53:03;;;;;;;114.53;14.40;;;;;;;6.32;100.00;100490.69;4982875;28;20183;-59
2022/01/02 03:55:29;;;;;;;73.97;12.50;;;;;;;6.37;100.00;100500.78;4970619;28;20247;-59
2022/01/02 03:57:54;;;;;;;146.00;15.77;;;;;;;6.51;100.00;100508.03;4972304;28;20182;-59
2022/01/02 04:00:19;;;;;;;64.67;12.90;;;;;;;6.64;100.00;100516.97;4954473;28;20206;-59
2022/01/02 04:02:45;;;;;;;67.47;13.07;;;;;;;6.72;100.00;100512.47;4984724;28;20544;-58
2022/01/02 04:05:13;;;;;;;95.37;12.87;;;;;;;6.81;100.00;100505.38;4972042;28;20179;-58
2022/01/02 04:07:39;;;;;;;90.20;14.07;;;;;;;6.79;100.00;100490.91;4972254;28;20234;-58
2022/01/02 04:10:07;;;;;;;107.43;14.73;;;;;;;6.52;100.00;100482.41;4962486;28;20199;-58
2022/01/02 04:12:33;;;;;;;32.03;12.80;;;;;;;6.68;100.00;100492.97;4970705;28;20190;-59
2022/01/02 04:14:59;;;;;;;83.10;13.93;;;;;;;6.80;100.00;100489.19;4971867;28;20182;-59
2022/01/02 04:17:25;;;;;;;68.07;13.60;;;;;;;6.74;100.00;100489.41;4976668;28;20760;-57
2022/01/02 04:19:51;;;;;;;47.07;12.67;;;;;;;6.90;100.00;100493.13;4971738;28;20203;-58
2022/01/02 04:22:17;;;;;;;89.40;13.00;;;;;;;6.92;100.00;100493.91;4977095;28;20242;-58
2022/01/02 04:24:42;;;;;;;174.23;16.47;;;;;;;6.92;100.00;100476.00;4971624;28;20179;-58
2022/01/02 04:27:08;;;;;;;75.97;13.60;;;;;;;6.59;100.00;100457.50;4971855;28;20246;-58
2022/01/02 04:29:33;;;;;;;109.10;14.97;;;;;;;6.40;100.00;100465.75;4971842;28;20204;-58
2022/01/02 04:31:58;;;;;;;42.00;13.20;;;;;;;6.49;100.00;100467.19;4956405;28;20227;-58
2022/01/02 04:34:23;;;;;;;111.00;16.73;;;;;;;6.58;100.00;100469.44;4972267;28;20767;-58
2022/01/02 04:36:49;;;;;;;33.03;13.23;;;;;;;6.70;100.00;100481.00;4971771;28;20664;-58
2022/01/02 04:39:14;;;;;;;158.00;18.10;;;;;;;6.72;100.00;100481.78;4971360;28;20214;-58
2022/01/02 04:41:39;;;;;;;150.67;17.10;;;;;;;6.69;100.00;100475.94;4981239;28;20324;-58
2022/01/02 04:44:05;;;;;;;133.47;16.33;;;;;;;6.66;100.00;100468.34;4993594;28;20190;-58
2022/01/02 04:46:33;;;;;;;93.50;15.07;;;;;;;6.59;100.00;100460.88;4991057;28;20183;-58
2022/01/02 04:48:58;;;;;;;65.23;15.13;;;;;;;6.45;100.00;100455.41;4990913;28;20217;-58
2022/01/02 04:51:24;;;;;;;107.93;17.17;;;;;;;6.30;100.00;100444.75;4991172;28;20705;-59
2022/01/02 04:53:49;;;;;;;114.07;16.10;;;;;;;6.35;100.00;100452.28;4995420;28;20179;-58
2022/01/02 04:56:17;;;;;;;83.03;15.73;;;;;;;6.54;100.00;100457.63;4991031;28;20183;-58
2022/01/02 04:58:43;;;;;;;125.87;18.47;;;;;;;6.61;100.00;100453.16;4990815;28;20202;-59
2022/01/02 05:01:12;;;;;;;79.60;16.67;;;;;;;6.37;100.00;100453.06;4989060;28;20309;-58
2022/01/02 05:03:41;;;;;;;63.63;15.77;;;;;;;6.40;100.00;100441.91;4997033;28;20184;-58
2022/01/02 05:06:07;;;;;;;94.00;15.77;;;;;;;6.46;100.00;100446.81;4990885;28;20188;-58
2022/01/02 05:08:33;;;;;;;124.97;16.87;;;;;;;6.49;100.00;100443.31;4990774;28;20205;-58
2022/01/02 05:10:58;;;;;;;110.57;16.73;;;;;;;6.25;100.00;100444.06;4987678;28;20233;-58
2022/01/02 05:13:23;;;;;;;174.50;16.20;;;;;;;6.36;100.00;100433.50;4998903;28;20571;-58
2022/01/02 05:15:49;;;;;;;106.70;15.10;;;;;;;6.55;100.00;100435.47;4990414;28;20212;-58
2022/01/02 05:18:14;;;;;;;173.40;19.90;;;;;;;6.37;100.00;100444.56;4990633;28;20196;-58
2022/01/02 05:20:39;;;;;;;203.83;17.93;;;;;;;6.49;100.00;100436.50;4985495;28;20750;-58
2022/01/02 05:23:05;;;;;;;131.40;17.23;;;;;;;6.60;100.00;100434.44;5000895;28;20589;-58
2022/01/02 05:25:30;;;;;;;151.27;17.07;;;;;;;6.57;100.00;100432.00;4990652;28;20178;-56
2022/01/02 05:27:55;;;;;;;98.77;14.87;;;;;;;6.40;100.00;100440.19;4990728;28;20663;-56
2022/01/02 05:30:21;;;;;;;63.47;15.20;;;;;;;6.54;100.00;100432.09;4985186;28;20229;-57
2022/01/02 05:32:46;;;;;;;56.03;14.53;;;;;;;6.59;100.00;100435.31;5007091;28;20178;-57
2022/01/02 05:35:11;;;;;;;74.87;14.17;;;;;;;6.65;100.00;100436.00;4994108;28;20185;-58
2022/01/02 05:37:36;;;;;;;57.57;13.97;;;;;;;6.59;100.00;100440.44;4994218;28;20652;-58
2022/01/02 05:40:03;;;;;;;99.63;16.13;;;;;;;6.37;100.00;100435.16;4990506;28;20264;-58
2022/01/02 05:42:28;;;;;;;70.60;17.10;;;;;;;6.43;100.00;100439.25;4998556;28;20198;-58
2022/01/02 05:44:53;;;;;;;61.83;14.53;;;;;;;6.33;100.00;100430.22;4993871;28;20607;-58
2022/01/02 05:47:19;;;;;;;47.83;15.40;;;;;;;6.42;100.00;100425.63;4986026;28;20242;-58
2022/01/02 05:49:44;;;;;;;47.50;15.37;;;;;;;6.29;100.00;100424.38;4974673;28;20222;-58
2022/01/02 05:52:09;;;;;;;36.23;15.20;;;;;;;6.09;100.00;100424.97;4979407;28;20240;-58
2022/01/02 05:54:34;;;;;;;37.30;14.80;;;;;;;6.05;100.00;100406.34;4974184;28;20266;-59
2022/01/02 05:57:00;;;;;;;45.77;14.53;;;;;;;6.08;100.00;100402.91;4974499;28;20182;-59
2022/01/02 05:59:25;;;;;;;14.33;12.93;;;;;;;6.14;100.00;100408.63;4974369;28;20567;-58
2022/01/02 06:01:50;;;;;;;36.90;14.80;;;;;;;6.31;100.00;100417.47;4977849;28;20304;-58
2022/01/02 06:04:16;;;;;;;27.53;15.70;;;;;;;6.35;100.00;100411.41;4975305;28;20225;-58
2022/01/02 06:06:41;;;;;;;38.93;15.50;;;;;;;6.51;100.00;100409.19;4972765;28;20233;-58
2022/01/02 06:09:09;;;;;;;23.63;13.83;;;;;;;6.31;100.00;100407.25;4974216;28;20214;-58
2022/01/02 06:11:34;;;;;;;14.97;13.37;;;;;;;6.35;100.00;100406.28;4975679;28;20706;-58
2022/01/02 06:13:59;;;;;;;12.67;11.37;;;;;;;6.44;100.00;100394.94;4977286;28;20183;-58
2022/01/02 06:16:24;;;;;;;12.63;11.33;;;;;;;6.25;100.00;100397.22;4974117;28;20183;-58
2022/01/02 06:18:52;;;;;;;11.83;10.70;;;;;;;6.17;100.00;100396.66;4973947;28;20211;-58
2022/01/02 06:21:17;;;;;;;12.43;11.23;;;;;;;6.17;100.00;100394.94;4973277;28;20265;-58
2022/01/02 06:23:42;;;;;;;14.00;11.30;;;;;;;6.23;100.00;100397.28;4972304;28;20224;-58
2022/01/02 06:26:09;;;;;;;11.90;10.70;;;;;;;6.26;100.00;100388.69;4973836;28;20183;-58
2022/01/02 06:28:34;;;;;;;12.80;11.60;;;;;;;6.08;100.00;100385.84;4973964;28;20688;-58
2022/01/02 06:31:00;;;;;;;11.43;10.23;;;;;;;6.14;100.00;100383.09;4971061;28;20242;-58
2022/01/02 06:33:26;;;;;;;12.13;10.93;;;;;;;6.24;100.00;100380.22;4981235;28;20596;-58
2022/01/02 06:35:51;;;;;;;12.77;11.47;;;;;;;6.30;100.00;100378.34;4973384;28;20179;-57
2022/01/02 06:38:22;;;;;;;12.57;11.37;;;;;;;6.17;100.00;100371.13;4973473;28;20218;-58
2022/01/02 06:40:48;;;;;;;11.83;10.63;;;;;;;6.14;100.00;100369.50;4969158;28;20244;-57
2022/01/02 06:43:16;;;;;;;11.80;10.60;;;;;;;6.17;100.00;100371.94;5002241;28;20190;-57
2022/01/02 06:45:42;;;;;;;12.40;10.83;;;;;;;6.32;100.00;100385.94;4992977;28;20171;-57
2022/01/02 06:48:07;;;;;;;12.73;11.37;;;;;;;6.45;100.00;100394.88;4992580;28;20194;-57
2022/01/02 06:50:33;;;;;;;11.67;10.43;;;;;;;6.48;100.00;100395.69;4986513;28;20230;-58
2022/01/02 06:52:58;;;;;;;13.23;11.93;;;;;;;6.15;100.00;100383.91;5003840;28;20256;-58
2022/01/02 06:55:23;;;;;;;11.73;10.53;;;;;;;6.25;100.00;100377.66;4992553;28;20228;-58
2022/01/02 06:57:49;;;;;;;11.60;10.43;;;;;;;6.32;100.00;100375.72;4992782;28;20181;-58
2022/01/02 07:00:14;;;;;;;11.53;10.37;;;;;;;6.32;100.00;100378.28;4984076;28;20284;-58
2022/01/02 07:02:40;;;;;;;11.20;10.17;;;;;;;6.43;100.00;100372.81;5006201;28;20170;-58
2022/01/02 07:05:05;;;;;;;12.00;10.80;;;;;;;6.29;100.00;100370.72;4992274;28;20539;-58
2022/01/02 07:07:31;;;;;;;11.57;10.37;;;;;;;6.34;100.00;100368.84;4992727;28;20177;-58
2022/01/02 07:09:56;;;;;;;11.23;10.13;;;;;;;6.30;100.00;100362.16;4992519;28;20222;-58
2022/01/02 07:12:23;;;;;;;10.97;9.87;;;;;;;6.43;100.00;100350.66;4997792;28;20240;-57
2022/01/02 07:14:51;;;;;;;12.20;10.90;;;;;;;6.44;100.00;100352.31;4992271;28;20166;-58
2022/01/02 07:17:17;;;;;;;12.00;10.70;;;;;;;6.28;100.00;100367.31;4992634;28;20183;-58
2022/01/02 07:19:42;;;;;;;12.90;11.03;;;;;;;6.37;100.00;100373.84;4992272;28;20202;-58
2022/01/02 07:22:07;;;;;;;18.77;11.00;;;;;;;6.44;100.00;100362.53;4997314;28;20230;-58
2022/01/02 07:24:34;;;;;;;14.80;11.13;;;;;;;6.46;100.00;100352.25;4992099;28;20178;-58
2022/01/02 07:26:59;;;;;;;13.53;10.90;;;;;;;6.50;100.00;100350.44;4992376;28;20540;-58
2022/01/02 07:29:24;;;;;;;21.97;12.13;;;;;;;6.40;100.00;100355.03;4992251;28;20216;-58
2022/01/02 07:31:50;;;;;;;12.30;11.10;;;;;;;6.19;100.00;100336.13;4995958;28;20233;-58
2022/01/02 07:34:15;;;;;;;12.20;11.00;;;;;;;6.14;100.00;100337.13;4993279;28;20702;-58
2022/01/02 07:36:44;;;;;;;11.43;10.30;;;;;;;6.40;100.00;100340.53;4992280;28;20177;-58
2022/01/02 07:39:19;;;;;;;10.87;9.53;;;;;;;6.19;100.00;100348.91;4991663;28;20214;-57
2022/01/02 07:41:44;;;;;;;9.93;8.90;;;;;;;6.21;100.00;100350.50;4986978;28;20221;-57
2022/01/02 07:44:10;;;;;;;10.13;9.23;;;;;;;6.19;100.00;100348.91;4991581;28;20181;-58
2022/01/02 07:46:35;;;;;;;8.60;7.80;;;;;;;6.23;100.00;100350.47;4989692;28;20251;-57
2022/01/02 07:49:01;;;;;;;8.97;8.17;;;;;;;6.17;100.00;100341.28;4972337;28;20195;-58
2022/01/02 07:51:26;;;;;;;8.60;7.87;;;;;;;6.13;100.00;100334.63;4972687;28;20283;-57
2022/01/02 07:53:51;;;;;;;9.40;8.53;;;;;;;6.24;100.00;100339.34;4976128;28;20272;-57
2022/01/02 07:56:17;;;;;;;9.33;8.33;;;;;;;6.32;100.00;100328.91;4972418;28;20517;-58
2022/01/02 07:58:42;;;;;;;8.80;7.90;;;;;;;6.25;100.00;100323.16;4972150;28;20206;-57
2022/01/02 08:01:07;;;;;;;9.90;8.90;;;;;;;6.30;100.00;100323.81;4960641;28;20218;-59
2022/01/02 08:03:33;;;;;;;12.03;10.60;;;;;;;6.40;100.00;100335.44;4978783;28;20274;-58
2022/01/02 08:05:58;;;;;;;10.63;9.63;;;;;;;6.44;100.00;100331.88;4970760;28;20217;-58
2022/01/02 08:08:23;;;;;;;11.60;10.40;;;;;;;6.58;100.00;100333.13;4974010;28;20286;-59
2022/01/02 08:10:49;;;;;;;14.50;11.70;;;;;;;6.70;100.00;100324.19;4985709;28;20308;-58
2022/01/02 08:13:14;;;;;;;14.03;11.57;;;;;;;6.70;100.00;100316.53;4994344;28;20174;-58
2022/01/02 08:15:40;;;;;;;19.90;12.07;;;;;;;6.77;100.00;100315.44;4986484;28;20230;-58
2022/01/02 08:18:05;;;;;;;23.30;12.67;;;;;;;6.90;100.00;100309.00;5001506;28;20171;-58
2022/01/02 08:20:30;;;;;;;27.03;12.43;;;;;;;6.89;100.00;100301.38;4985301;28;20370;-58
2022/01/02 08:22:56;;;;;;;46.60;12.97;;;;;;;6.86;100.00;100293.81;5003048;28;20205;-58
2022/01/02 08:25:23;;;;;;;45.13;13.53;;;;;;;6.80;100.00;100282.09;4991156;28;20178;-57
2022/01/02 08:27:48;;;;;;;62.20;13.50;;;;;;;6.88;100.00;100279.25;4991475;28;20179;-58
2022/01/02 08:30:13;;;;;;;28.10;13.10;;;;;;;6.85;100.00;100287.88;4960616;28;20198;-57
2022/01/02 08:32:39;;;;;;;94.90;15.67;;;;;;;6.88;100.00;100292.03;4990572;28;20185;-58
2022/01/02 08:35:06;;;;;;;65.00;14.07;;;;;;;6.92;100.00;100281.66;4990987;28;20205;-58
2022/01/02 08:37:32;;;;;;;29.07;12.67;;;;;;;7.01;100.00;100275.38;4992101;28;20568;-58
2022/01/02 08:39:57;;;;;;;35.97;13.33;;;;;;;7.07;100.00;100277.69;4991352;28;20212;-58
2022/01/02 08:42:23;;;;;;;32.47;12.00;;;;;;;7.11;100.00;100266.44;4986659;28;20227;-58
2022/01/02 08:44:49;;;;;;;34.93;13.43;;;;;;;6.90;100.00;100267.25;4991675;28;20175;-57
2022/01/02 08:47:14;;;;;;;27.47;14.00;;;;;;;6.91;100.00;100272.31;4984242;28;20186;-58
2022/01/02 08:49:40;;;;;;;25.23;13.67;;;;;;;6.91;100.00;100269.75;4972087;28;20207;-58
2022/01/02 08:52:05;;;;;;;33.73;14.30;;;;;;;6.81;100.00;100275.25;4977055;28;20230;-58
2022/01/02 08:54:31;;;;;;;17.60;13.20;;;;;;;6.74;100.00;100274.66;4971745;28;20207;-57
2022/01/02 08:56:56;;;;;;;23.30;13.93;;;;;;;6.67;100.00;100288.53;4972015;28;20179;-58
2022/01/02 08:59:27;;;;;;;14.57;12.50;;;;;;;6.76;100.00;100289.03;4971754;28;20235;-58
2022/01/02 09:01:54;;;;;;;16.50;12.00;;;;;;;6.83;100.00;100281.16;4975722;28;20238;-57
2022/01/02 09:04:19;;;;;;;14.37;12.83;;;;;;;6.95;100.00;100273.03;4975072;28;20728;-58
2022/01/02 09:06:44;;;;;;;12.67;11.47;;;;;;;6.88;100.00;100263.91;4975948;28;20255;-58
2022/01/02 09:09:10;;;;;;;13.80;12.40;;;;;;;6.89;100.00;100265.59;4975517;28;20204;-58
2022/01/02 09:11:35;;;;;;;12.80;11.57;;;;;;;7.09;100.00;100267.41;4977333;28;20235;-58
2022/01/02 09:14:02;;;;;;;11.93;10.83;;;;;;;7.27;100.00;100259.03;4978536;28;20176;-58
2022/01/02 09:16:28;;;;;;;13.30;12.00;;;;;;;7.35;100.00;100258.72;4975387;28;20212;-58
2022/01/02 09:18:54;;;;;;;11.93;10.73;;;;;;;7.41;100.00;100255.94;4975051;28;20196;-58
2022/01/02 09:21:19;;;;;;;11.07;9.97;;;;;;;7.26;100.00;100259.09;4974931;28;20230;-58
2022/01/02 09:23:45;;;;;;;9.97;9.07;;;;;;;7.21;100.00;100259.25;4980456;28;20172;-59
2022/01/02 09:26:10;;;;;;;10.70;9.60;;;;;;;7.27;100.00;100253.09;4975001;28;20227;-59
2022/01/02 09:28:36;;;;;;;11.67;10.57;;;;;;;6.91;100.00;100246.72;4975337;28;20679;-58
2022/01/02 09:31:02;;;;;;;10.17;9.07;;;;;;;7.06;100.00;100254.75;4972500;28;20245;-59
2022/01/02 09:33:27;;;;;;;11.10;10.00;;;;;;;6.91;100.00;100253.59;4982410;28;20184;-58
2022/01/02 09:35:52;;;;;;;11.70;10.50;;;;;;;6.91;100.00;100256.13;4975395;28;20258;-59
2022/01/02 09:38:18;;;;;;;11.57;10.37;;;;;;;7.20;100.00;100267.00;4973782;28;20668;-59
2022/01/02 09:40:43;;;;;;;11.30;10.17;;;;;;;7.39;100.00;100247.50;4970337;28;20604;-58
2022/01/02 09:43:08;;;;;;;14.13;11.00;;;;;;;7.45;100.00;100245.59;5003947;28;20280;-58
2022/01/02 09:45:38;;;;;;;13.90;11.10;;;;;;;7.50;100.00;100256.47;4994069;28;20266;-58
2022/01/02 09:48:05;;;;;;;12.40;10.90;;;;;;;7.56;100.00;100294.63;4994129;28;20218;-58
2022/01/02 09:50:32;;;;;;;14.77;11.47;;;;;;;7.42;100.00;100300.28;4988044;28;20240;-58
2022/01/02 09:52:57;;;;;;;13.67;12.20;;;;;;;7.46;100.00;100316.38;5005500;28;20546;-59
2022/01/02 09:55:23;;;;;;;11.93;10.73;;;;;;;7.49;100.00;100311.13;4994001;28;20171;-58
2022/01/02 09:57:49;;;;;;;12.77;11.57;;;;;;;7.49;100.00;100295.75;4994166;28;20203;-58
2022/01/02 10:00:16;;;;;;;13.63;11.63;;;;;;;7.67;100.00;100282.25;4985233;28;20289;-58
2022/01/02 10:03:01;;;;;;;16.07;12.17;;;;;;;7.60;100.00;100278.25;5007550;28;20258;-58
2022/01/02 10:05:28;;;;;;;15.30;12.50;;;;;;;7.77;100.00;100281.88;4993921;28;20182;-58
2022/01/02 10:07:55;;;;;;;12.80;10.90;;;;;;;7.95;100.00;100285.41;4994038;28;20179;-58
2022/01/02 10:10:21;;;;;;;13.70;12.30;;;;;;;7.86;100.00;100272.13;4986295;28;20277;-58
2022/01/02 10:12:46;;;;;;;13.73;12.23;;;;;;;8.03;100.00;100255.22;5006500;28;20176;-58
2022/01/02 10:15:21;;;;;;;12.43;11.13;;;;;;;8.07;100.00;100242.22;4993087;28;20624;-58
2022/01/02 10:18:05;;;;;;;13.83;11.80;;;;;;;7.84;100.00;100250.84;4993990;28;20261;-58
2022/01/02 10:20:34;;;;;;;13.73;12.23;;;;;;;7.66;100.00;100225.97;4987532;28;20614;-58
2022/01/02 10:23:04;;;;;;;15.43;11.53;;;;;;;7.58;100.00;100227.13;5004710;28;20550;-59
2022/01/02 10:25:57;;;;;;;13.47;11.07;;;;;;;7.53;100.00;100203.44;4993342;28;20172;-58
2022/01/02 10:28:49;;;;;;;12.43;11.07;;;;;;;7.33;100.00;100205.94;4993761;28;20239;-58
2022/01/02 10:31:15;;;;;;;11.93;10.47;;;;;;;7.46;100.00;100212.25;4989809;28;20648;-59
2022/01/02 10:33:56;;;;;;;13.20;11.13;;;;;;;7.62;100.00;100209.91;4999325;28;20181;-58
2022/01/02 10:36:26;;;;;;;15.07;10.83;;;;;;;7.31;100.00;100205.19;4992318;28;20678;-57
2022/01/02 10:39:12;;;;;;;12.90;11.50;;;;;;;7.37;100.00;100195.53;4991995;28;20595;-58
2022/01/02 10:41:39;;;;;;;11.93;10.73;;;;;;;7.02;100.00;100194.34;4988216;28;20957;-58
2022/01/02 10:44:22;;;;;;;13.67;11.60;;;;;;;7.02;100.00;100195.19;4992857;28;20182;-59
2022/01/02 10:47:09;;;;;;;13.73;12.33;;;;;;;6.98;100.00;100185.94;4989514;28;20191;-58
2022/01/02 10:50:07;;;;;;;15.13;12.10;;;;;;;6.99;100.00;100187.63;4972506;28;20200;-58
2022/01/02 10:52:37;;;;;;;13.33;11.93;;;;;;;6.94;100.00;100175.00;4962646;28;20216;-58
2022/01/02 10:55:13;;;;;;;16.40;11.63;;;;;;;6.94;100.00;100161.38;4973534;28;20192;-58
2022/01/02 10:57:42;;;;;;;13.97;12.10;;;;;;;6.89;100.00;100148.78;4972584;28;20191;-58
2022/01/02 11:00:09;;;;;;;14.50;11.87;;;;;;;6.93;100.00;100146.94;4963096;28;20526;-57
2022/01/02 11:02:35;;;;;;;13.30;11.93;;;;;;;7.01;100.00;100150.03;4987394;28;20191;-58
2022/01/02 11:05:07;;;;;;;12.90;11.50;;;;;;;6.99;100.00;100148.44;4973309;28;20188;-58
2022/01/02 11:07:59;;;;;;;14.87;11.60;;;;;;;7.21;100.00;100143.31;4973465;28;20645;-58
2022/01/02 11:10:25;;;;;;;12.50;11.20;;;;;;;7.41;100.00;100135.63;4954387;28;20235;-59
2022/01/02 11:12:53;;;;;;;12.83;10.80;;;;;;;7.71;100.00;100137.81;4985523;28;20643;-58